sensor_id;sensor_type;location;lat;lon;timestamp;temperature;humidity
80232;DHT22;74189;42.124;24.752;2023-12-14T00:01:21;8.40;65.00
80232;DHT22;74189;42.124;24.752;2023-12-14T00:03:47;8.40;65.10
80232;DHT22;74189;42.124;24.752;2023-12-14T00:06:14;8.40;64.90
80232;DHT22;74189;42.124;24.752;2023-12-14T00:08:40;8.40;65.30
80232;DHT22;74189;42.124;24.752;2023-12-14T00:11:10;8.40;65.20
80232;DHT22;74189;42.124;24.752;2023-12-14T00:13:36;8.40;65.10
80232;DHT22;74189;42.124;24.752;2023-12-14T00:16:02;8.40;65.00
80232;DHT22;74189;42.124;24.752;2023-12-14T00:18:28;8.40;64.90
80232;DHT22;74189;42.124;24.752;2023-12-14T00:20:54;8.40;64.90
80232;DHT22;74189;42.124;24.752;2023-12-14T00:23:20;8.50;64.90
80232;DHT22;74189;42.124;24.752;2023-12-14T00:25:46;8.50;64.80
80232;DHT22;74189;42.124;24.752;2023-12-14T00:28:12;8.40;64.90
80232;DHT22;74189;42.124;24.752;2023-12-14T00:30:37;8.40;65.00
80232;DHT22;74189;42.124;24.752;2023-12-14T00:33:03;8.40;65.00
80232;DHT22;74189;42.124;24.752;2023-12-14T00:35:29;8.40;64.80
80232;DHT22;74189;42.124;24.752;2023-12-14T00:37:54;8.50;64.80
80232;DHT22;74189;42.124;24.752;2023-12-14T00:40:20;8.40;64.80
80232;DHT22;74189;42.124;24.752;2023-12-14T00:42:46;8.30;65.00
80232;DHT22;74189;42.124;24.752;2023-12-14T00:45:11;8.40;65.00
80232;DHT22;74189;42.124;24.752;2023-12-14T00:47:37;8.40;65.00
80232;DHT22;74189;42.124;24.752;2023-12-14T00:50:03;8.40;64.90
80232;DHT22;74189;42.124;24.752;2023-12-14T00:52:29;8.40;64.90
80232;DHT22;74189;42.124;24.752;2023-12-14T00:54:54;8.40;65.00
80232;DHT22;74189;42.124;24.752;2023-12-14T00:57:20;8.40;65.20
80232;DHT22;74189;42.124;24.752;2023-12-14T00:59:46;8.40;65.20
80232;DHT22;74189;42.124;24.752;2023-12-14T01:02:11;8.40;65.00
80232;DHT22;74189;42.124;24.752;2023-12-14T01:04:37;8.50;65.00
80232;DHT22;74189;42.124;24.752;2023-12-14T01:07:03;8.40;64.90
80232;DHT22;74189;42.124;24.752;2023-12-14T01:09:29;8.40;64.90
80232;DHT22;74189;42.124;24.752;2023-12-14T01:11:55;8.40;64.80
80232;DHT22;74189;42.124;24.752;2023-12-14T01:14:20;8.40;64.60
80232;DHT22;74189;42.124;24.752;2023-12-14T01:16:46;8.40;65.90
80232;DHT22;74189;42.124;24.752;2023-12-14T01:19:12;8.30;65.00
80232;DHT22;74189;42.124;24.752;2023-12-14T01:21:37;8.40;65.00
80232;DHT22;74189;42.124;24.752;2023-12-14T01:24:03;8.30;65.00
80232;DHT22;74189;42.124;24.752;2023-12-14T01:26:29;8.30;65.50
80232;DHT22;74189;42.124;24.752;2023-12-14T01:28:55;8.30;65.50
80232;DHT22;74189;42.124;24.752;2023-12-14T01:31:20;8.30;65.40
80232;DHT22;74189;42.124;24.752;2023-12-14T01:33:49;8.30;65.50
80232;DHT22;74189;42.124;24.752;2023-12-14T01:36:25;8.30;65.50
80232;DHT22;74189;42.124;24.752;2023-12-14T01:38:51;8.30;65.30
80232;DHT22;74189;42.124;24.752;2023-12-14T01:41:17;8.30;65.50
80232;DHT22;74189;42.124;24.752;2023-12-14T01:43:43;8.30;65.30
80232;DHT22;74189;42.124;24.752;2023-12-14T01:46:09;8.30;65.70
80232;DHT22;74189;42.124;24.752;2023-12-14T01:48:35;8.30;65.10
80232;DHT22;74189;42.124;24.752;2023-12-14T01:51:01;8.30;64.80
80232;DHT22;74189;42.124;24.752;2023-12-14T01:53:27;8.20;64.80
80232;DHT22;74189;42.124;24.752;2023-12-14T01:55:53;8.20;65.20
80232;DHT22;74189;42.124;24.752;2023-12-14T01:58:19;8.20;65.30
80232;DHT22;74189;42.124;24.752;2023-12-14T02:01:07;8.20;65.30
80232;DHT22;74189;42.124;24.752;2023-12-14T02:03:34;8.30;65.20
80232;DHT22;74189;42.124;24.752;2023-12-14T02:05:59;8.20;65.10
80232;DHT22;74189;42.124;24.752;2023-12-14T02:08:27;8.20;65.20
80232;DHT22;74189;42.124;24.752;2023-12-14T02:10:53;8.20;65.30
80232;DHT22;74189;42.124;24.752;2023-12-14T02:13:19;8.20;65.20
80232;DHT22;74189;42.124;24.752;2023-12-14T02:15:45;8.30;65.30
80232;DHT22;74189;42.124;24.752;2023-12-14T02:18:11;8.30;65.30
80232;DHT22;74189;42.124;24.752;2023-12-14T02:20:36;8.30;65.50
80232;DHT22;74189;42.124;24.752;2023-12-14T02:23:02;8.30;65.40
80232;DHT22;74189;42.124;24.752;2023-12-14T02:25:28;8.40;65.40
80232;DHT22;74189;42.124;24.752;2023-12-14T02:27:53;8.30;66.30
80232;DHT22;74189;42.124;24.752;2023-12-14T02:30:19;8.30;65.40
80232;DHT22;74189;42.124;24.752;2023-12-14T02:32:45;8.30;65.40
80232;DHT22;74189;42.124;24.752;2023-12-14T02:35:10;8.30;65.50
80232;DHT22;74189;42.124;24.752;2023-12-14T02:37:36;8.40;65.30
80232;DHT22;74189;42.124;24.752;2023-12-14T02:40:08;8.40;65.10
80232;DHT22;74189;42.124;24.752;2023-12-14T02:42:34;8.40;65.10
80232;DHT22;74189;42.124;24.752;2023-12-14T02:45:01;8.30;65.10
80232;DHT22;74189;42.124;24.752;2023-12-14T02:47:28;8.30;65.20
80232;DHT22;74189;42.124;24.752;2023-12-14T02:49:54;8.40;65.20
80232;DHT22;74189;42.124;24.752;2023-12-14T02:52:20;8.40;65.20
80232;DHT22;74189;42.124;24.752;2023-12-14T02:54:45;8.40;65.30
80232;DHT22;74189;42.124;24.752;2023-12-14T02:57:11;8.40;65.20
80232;DHT22;74189;42.124;24.752;2023-12-14T02:59:37;8.30;65.10
80232;DHT22;74189;42.124;24.752;2023-12-14T03:02:03;8.40;65.20
80232;DHT22;74189;42.124;24.752;2023-12-14T03:04:28;8.40;65.00
80232;DHT22;74189;42.124;24.752;2023-12-14T03:06:54;8.40;65.00
80232;DHT22;74189;42.124;24.752;2023-12-14T03:09:21;8.40;65.20
80232;DHT22;74189;42.124;24.752;2023-12-14T03:11:47;8.40;65.20
80232;DHT22;74189;42.124;24.752;2023-12-14T03:14:13;8.40;65.30
80232;DHT22;74189;42.124;24.752;2023-12-14T03:16:39;8.50;65.40
80232;DHT22;74189;42.124;24.752;2023-12-14T03:19:04;8.50;65.30
80232;DHT22;74189;42.124;24.752;2023-12-14T03:21:31;8.50;65.20
80232;DHT22;74189;42.124;24.752;2023-12-14T03:23:56;8.50;65.10
80232;DHT22;74189;42.124;24.752;2023-12-14T03:26:22;8.60;65.30
80232;DHT22;74189;42.124;24.752;2023-12-14T03:28:47;8.60;65.20
80232;DHT22;74189;42.124;24.752;2023-12-14T03:31:13;8.60;65.10
80232;DHT22;74189;42.124;24.752;2023-12-14T03:33:40;8.60;65.00
80232;DHT22;74189;42.124;24.752;2023-12-14T03:36:06;8.60;65.20
80232;DHT22;74189;42.124;24.752;2023-12-14T03:38:32;8.50;65.20
80232;DHT22;74189;42.124;24.752;2023-12-14T03:40:58;8.60;65.20
80232;DHT22;74189;42.124;24.752;2023-12-14T03:43:23;8.60;65.10
80232;DHT22;74189;42.124;24.752;2023-12-14T03:45:49;8.60;65.00
80232;DHT22;74189;42.124;24.752;2023-12-14T03:48:15;8.60;65.00
80232;DHT22;74189;42.124;24.752;2023-12-14T03:50:40;8.60;64.60
80232;DHT22;74189;42.124;24.752;2023-12-14T03:53:06;8.60;64.50
80232;DHT22;74189;42.124;24.752;2023-12-14T03:55:32;8.60;64.50
80232;DHT22;74189;42.124;24.752;2023-12-14T03:57:58;8.60;64.70
80232;DHT22;74189;42.124;24.752;2023-12-14T04:00:24;8.60;64.40
80232;DHT22;74189;42.124;24.752;2023-12-14T04:02:50;8.60;64.40
80232;DHT22;74189;42.124;24.752;2023-12-14T04:05:16;8.60;64.60
80232;DHT22;74189;42.124;24.752;2023-12-14T04:07:41;8.60;64.40
80232;DHT22;74189;42.124;24.752;2023-12-14T04:10:11;8.50;64.90
80232;DHT22;74189;42.124;24.752;2023-12-14T04:12:37;8.50;64.90
80232;DHT22;74189;42.124;24.752;2023-12-14T04:15:04;8.60;64.80
80232;DHT22;74189;42.124;24.752;2023-12-14T04:17:30;8.60;64.80
80232;DHT22;74189;42.124;24.752;2023-12-14T04:19:56;8.60;64.70
80232;DHT22;74189;42.124;24.752;2023-12-14T04:22:22;8.60;64.70
80232;DHT22;74189;42.124;24.752;2023-12-14T04:24:48;8.70;64.90
80232;DHT22;74189;42.124;24.752;2023-12-14T04:27:15;8.70;64.80
80232;DHT22;74189;42.124;24.752;2023-12-14T04:29:40;8.70;64.60
80232;DHT22;74189;42.124;24.752;2023-12-14T04:32:06;8.60;64.60
80232;DHT22;74189;42.124;24.752;2023-12-14T04:34:32;8.60;64.50
80232;DHT22;74189;42.124;24.752;2023-12-14T04:36:57;8.60;64.80
80232;DHT22;74189;42.124;24.752;2023-12-14T04:39:24;8.60;64.80
80232;DHT22;74189;42.124;24.752;2023-12-14T04:41:52;8.70;64.80
80232;DHT22;74189;42.124;24.752;2023-12-14T04:44:19;8.70;64.70
80232;DHT22;74189;42.124;24.752;2023-12-14T04:46:44;8.70;64.70
80232;DHT22;74189;42.124;24.752;2023-12-14T04:49:10;8.70;64.60
80232;DHT22;74189;42.124;24.752;2023-12-14T04:51:36;8.70;64.70
80232;DHT22;74189;42.124;24.752;2023-12-14T04:54:02;8.70;64.60
80232;DHT22;74189;42.124;24.752;2023-12-14T04:56:28;8.70;65.70
80232;DHT22;74189;42.124;24.752;2023-12-14T04:58:53;8.40;65.00
80232;DHT22;74189;42.124;24.752;2023-12-14T05:01:19;8.20;64.90
80232;DHT22;74189;42.124;24.752;2023-12-14T05:03:45;8.20;64.70
80232;DHT22;74189;42.124;24.752;2023-12-14T05:06:10;8.10;64.50
80232;DHT22;74189;42.124;24.752;2023-12-14T05:08:36;8.20;64.60
80232;DHT22;74189;42.124;24.752;2023-12-14T05:11:01;8.20;64.30
80232;DHT22;74189;42.124;24.752;2023-12-14T05:13:28;8.20;64.80
80232;DHT22;74189;42.124;24.752;2023-12-14T05:15:53;8.20;64.60
80232;DHT22;74189;42.124;24.752;2023-12-14T05:18:19;8.20;65.00
80232;DHT22;74189;42.124;24.752;2023-12-14T05:20:45;8.20;65.00
80232;DHT22;74189;42.124;24.752;2023-12-14T05:23:11;8.30;64.80
80232;DHT22;74189;42.124;24.752;2023-12-14T05:25:37;8.20;64.40
80232;DHT22;74189;42.124;24.752;2023-12-14T05:28:03;8.10;64.80
80232;DHT22;74189;42.124;24.752;2023-12-14T05:30:29;8.00;64.90
80232;DHT22;74189;42.124;24.752;2023-12-14T05:32:55;8.00;65.40
80232;DHT22;74189;42.124;24.752;2023-12-14T05:35:21;8.00;65.10
80232;DHT22;74189;42.124;24.752;2023-12-14T05:37:47;8.10;65.10
80232;DHT22;74189;42.124;24.752;2023-12-14T05:40:13;8.10;65.30
80232;DHT22;74189;42.124;24.752;2023-12-14T05:42:39;8.10;65.40
80232;DHT22;74189;42.124;24.752;2023-12-14T05:45:05;8.20;65.60
80232;DHT22;74189;42.124;24.752;2023-12-14T05:47:31;8.20;65.40
80232;DHT22;74189;42.124;24.752;2023-12-14T05:49:58;8.20;65.10
80232;DHT22;74189;42.124;24.752;2023-12-14T05:52:24;8.20;65.10
80232;DHT22;74189;42.124;24.752;2023-12-14T05:54:50;8.20;65.00
80232;DHT22;74189;42.124;24.752;2023-12-14T05:57:15;8.20;65.10
80232;DHT22;74189;42.124;24.752;2023-12-14T05:59:41;8.20;65.70
80232;DHT22;74189;42.124;24.752;2023-12-14T06:02:07;8.30;66.00
80232;DHT22;74189;42.124;24.752;2023-12-14T06:04:33;8.40;66.10
80232;DHT22;74189;42.124;24.752;2023-12-14T06:06:58;8.40;66.00
80232;DHT22;74189;42.124;24.752;2023-12-14T06:09:24;8.40;66.00
80232;DHT22;74189;42.124;24.752;2023-12-14T06:12:00;8.50;66.00
80232;DHT22;74189;42.124;24.752;2023-12-14T06:14:26;8.50;65.80
80232;DHT22;74189;42.124;24.752;2023-12-14T06:16:52;8.60;65.70
80232;DHT22;74189;42.124;24.752;2023-12-14T06:19:18;8.60;65.60
80232;DHT22;74189;42.124;24.752;2023-12-14T06:21:43;8.60;65.50
80232;DHT22;74189;42.124;24.752;2023-12-14T06:24:09;8.70;65.40
80232;DHT22;74189;42.124;24.752;2023-12-14T06:26:35;8.70;65.40
80232;DHT22;74189;42.124;24.752;2023-12-14T06:29:05;8.70;65.30
80232;DHT22;74189;42.124;24.752;2023-12-14T06:31:31;8.70;65.20
80232;DHT22;74189;42.124;24.752;2023-12-14T06:33:56;8.70;65.20
80232;DHT22;74189;42.124;24.752;2023-12-14T06:36:23;8.80;65.20
80232;DHT22;74189;42.124;24.752;2023-12-14T06:38:52;8.80;65.20
80232;DHT22;74189;42.124;24.752;2023-12-14T06:41:22;8.80;65.20
80232;DHT22;74189;42.124;24.752;2023-12-14T06:43:48;8.80;65.20
80232;DHT22;74189;42.124;24.752;2023-12-14T06:46:14;8.80;65.20
80232;DHT22;74189;42.124;24.752;2023-12-14T06:48:39;8.80;65.10
80232;DHT22;74189;42.124;24.752;2023-12-14T06:51:06;8.90;65.00
80232;DHT22;74189;42.124;24.752;2023-12-14T06:53:31;8.90;65.10
80232;DHT22;74189;42.124;24.752;2023-12-14T06:55:57;8.90;65.10
80232;DHT22;74189;42.124;24.752;2023-12-14T06:58:23;8.90;65.00
80232;DHT22;74189;42.124;24.752;2023-12-14T07:00:48;9.00;64.90
80232;DHT22;74189;42.124;24.752;2023-12-14T07:03:14;8.90;65.20
80232;DHT22;74189;42.124;24.752;2023-12-14T07:05:40;8.90;65.50
80232;DHT22;74189;42.124;24.752;2023-12-14T07:08:05;8.90;65.60
80232;DHT22;74189;42.124;24.752;2023-12-14T07:10:31;9.00;65.60
80232;DHT22;74189;42.124;24.752;2023-12-14T07:12:57;9.10;65.50
80232;DHT22;74189;42.124;24.752;2023-12-14T07:15:24;9.10;65.20
80232;DHT22;74189;42.124;24.752;2023-12-14T07:17:50;9.20;66.00
80232;DHT22;74189;42.124;24.752;2023-12-14T07:20:15;9.20;65.30
80232;DHT22;74189;42.124;24.752;2023-12-14T07:22:41;9.20;65.70
80232;DHT22;74189;42.124;24.752;2023-12-14T07:25:07;9.30;64.60
80232;DHT22;74189;42.124;24.752;2023-12-14T07:27:33;9.40;64.40
80232;DHT22;74189;42.124;24.752;2023-12-14T07:29:59;9.40;64.10
80232;DHT22;74189;42.124;24.752;2023-12-14T07:32:25;9.50;64.00
80232;DHT22;74189;42.124;24.752;2023-12-14T07:34:50;9.60;63.80
80232;DHT22;74189;42.124;24.752;2023-12-14T07:37:16;9.50;65.20
80232;DHT22;74189;42.124;24.752;2023-12-14T07:39:42;9.70;63.90
80232;DHT22;74189;42.124;24.752;2023-12-14T07:42:07;9.70;63.50
80232;DHT22;74189;42.124;24.752;2023-12-14T07:44:33;9.80;63.40
80232;DHT22;74189;42.124;24.752;2023-12-14T07:47:00;9.90;63.20
80232;DHT22;74189;42.124;24.752;2023-12-14T07:49:26;10.00;62.90
80232;DHT22;74189;42.124;24.752;2023-12-14T07:51:52;10.00;62.30
80232;DHT22;74189;42.124;24.752;2023-12-14T07:54:18;10.00;62.40
80232;DHT22;74189;42.124;24.752;2023-12-14T07:56:44;10.10;62.20
80232;DHT22;74189;42.124;24.752;2023-12-14T07:59:10;10.20;62.10
80232;DHT22;74189;42.124;24.752;2023-12-14T08:01:36;10.20;62.00
80232;DHT22;74189;42.124;24.752;2023-12-14T08:04:02;10.30;63.10
80232;DHT22;74189;42.124;24.752;2023-12-14T08:06:28;10.20;61.60
80232;DHT22;74189;42.124;24.752;2023-12-14T08:08:55;10.20;61.80
80232;DHT22;74189;42.124;24.752;2023-12-14T08:11:20;10.30;62.10
80232;DHT22;74189;42.124;24.752;2023-12-14T08:13:46;10.30;61.60
80232;DHT22;74189;42.124;24.752;2023-12-14T08:16:13;10.50;61.60
80232;DHT22;74189;42.124;24.752;2023-12-14T08:18:38;10.60;61.70
80232;DHT22;74189;42.124;24.752;2023-12-14T08:21:04;10.60;61.10
80232;DHT22;74189;42.124;24.752;2023-12-14T08:23:30;10.70;61.00
80232;DHT22;74189;42.124;24.752;2023-12-14T08:25:56;10.40;60.70
80232;DHT22;74189;42.124;24.752;2023-12-14T08:28:25;10.30;61.10
80232;DHT22;74189;42.124;24.752;2023-12-14T08:30:51;10.50;61.00
80232;DHT22;74189;42.124;24.752;2023-12-14T08:33:17;10.70;60.80
80232;DHT22;74189;42.124;24.752;2023-12-14T08:35:43;10.80;60.20
80232;DHT22;74189;42.124;24.752;2023-12-14T08:38:10;10.60;60.00
80232;DHT22;74189;42.124;24.752;2023-12-14T08:40:36;10.60;60.50
80232;DHT22;74189;42.124;24.752;2023-12-14T08:43:02;10.80;60.50
80232;DHT22;74189;42.124;24.752;2023-12-14T08:45:28;10.90;60.00
80232;DHT22;74189;42.124;24.752;2023-12-14T08:47:54;11.00;59.70
80232;DHT22;74189;42.124;24.752;2023-12-14T08:50:20;11.00;59.70
80232;DHT22;74189;42.124;24.752;2023-12-14T08:52:46;11.10;59.70
80232;DHT22;74189;42.124;24.752;2023-12-14T08:55:12;11.10;59.60
80232;DHT22;74189;42.124;24.752;2023-12-14T08:57:38;11.10;59.20
80232;DHT22;74189;42.124;24.752;2023-12-14T09:00:05;11.20;59.20
80232;DHT22;74189;42.124;24.752;2023-12-14T09:02:32;11.30;59.10
80232;DHT22;74189;42.124;24.752;2023-12-14T09:04:58;11.30;59.00
80232;DHT22;74189;42.124;24.752;2023-12-14T09:07:24;11.40;59.00
80232;DHT22;74189;42.124;24.752;2023-12-14T09:09:50;11.40;58.80
80232;DHT22;74189;42.124;24.752;2023-12-14T09:12:15;11.50;58.80
80232;DHT22;74189;42.124;24.752;2023-12-14T09:14:41;11.50;58.70
80232;DHT22;74189;42.124;24.752;2023-12-14T09:17:07;11.50;58.80
80232;DHT22;74189;42.124;24.752;2023-12-14T09:19:32;11.50;58.50
80232;DHT22;74189;42.124;24.752;2023-12-14T09:21:58;11.50;58.30
80232;DHT22;74189;42.124;24.752;2023-12-14T09:24:24;11.60;58.40
80232;DHT22;74189;42.124;24.752;2023-12-14T09:26:50;11.60;58.40
80232;DHT22;74189;42.124;24.752;2023-12-14T09:29:16;11.70;58.00
80232;DHT22;74189;42.124;24.752;2023-12-14T09:31:42;11.80;58.00
80232;DHT22;74189;42.124;24.752;2023-12-14T09:34:09;11.80;57.70
80232;DHT22;74189;42.124;24.752;2023-12-14T09:36:35;11.90;57.60
80232;DHT22;74189;42.124;24.752;2023-12-14T09:39:01;11.90;57.50
80232;DHT22;74189;42.124;24.752;2023-12-14T09:41:27;11.90;57.20
80232;DHT22;74189;42.124;24.752;2023-12-14T09:43:52;11.90;56.70
80232;DHT22;74189;42.124;24.752;2023-12-14T09:46:18;12.00;56.60
80232;DHT22;74189;42.124;24.752;2023-12-14T09:48:46;11.70;56.60
80232;DHT22;74189;42.124;24.752;2023-12-14T09:51:13;11.60;56.90
80232;DHT22;74189;42.124;24.752;2023-12-14T09:53:38;11.60;57.40
80232;DHT22;74189;42.124;24.752;2023-12-14T09:56:04;11.70;57.40
80232;DHT22;74189;42.124;24.752;2023-12-14T09:58:33;11.70;57.20
80232;DHT22;74189;42.124;24.752;2023-12-14T10:00:59;11.90;57.10
80232;DHT22;74189;42.124;24.752;2023-12-14T10:03:28;11.90;57.60
80232;DHT22;74189;42.124;24.752;2023-12-14T10:05:55;12.00;57.60
80232;DHT22;74189;42.124;24.752;2023-12-14T10:08:22;12.00;57.40
80232;DHT22;74189;42.124;24.752;2023-12-14T10:10:50;12.10;57.50
80232;DHT22;74189;42.124;24.752;2023-12-14T10:13:17;12.10;57.40
80232;DHT22;74189;42.124;24.752;2023-12-14T10:15:48;12.00;57.10
80232;DHT22;74189;42.124;24.752;2023-12-14T10:18:23;12.00;57.10
80232;DHT22;74189;42.124;24.752;2023-12-14T10:20:50;12.00;57.00
80232;DHT22;74189;42.124;24.752;2023-12-14T10:23:17;11.80;57.60
80232;DHT22;74189;42.124;24.752;2023-12-14T10:25:43;11.80;57.90
80232;DHT22;74189;42.124;24.752;2023-12-14T10:28:13;11.80;57.70
80232;DHT22;74189;42.124;24.752;2023-12-14T10:30:41;11.80;57.70
80232;DHT22;74189;42.124;24.752;2023-12-14T10:33:07;11.80;57.90
80232;DHT22;74189;42.124;24.752;2023-12-14T10:35:34;11.80;58.20
80232;DHT22;74189;42.124;24.752;2023-12-14T10:38:04;11.80;57.90
80232;DHT22;74189;42.124;24.752;2023-12-14T10:40:31;11.60;58.50
80232;DHT22;74189;42.124;24.752;2023-12-14T10:43:01;11.60;58.80
80232;DHT22;74189;42.124;24.752;2023-12-14T10:45:31;11.60;58.90
80232;DHT22;74189;42.124;24.752;2023-12-14T10:47:59;11.60;58.50
80232;DHT22;74189;42.124;24.752;2023-12-14T10:50:28;11.60;58.80
80232;DHT22;74189;42.124;24.752;2023-12-14T10:52:54;11.60;59.20
80232;DHT22;74189;42.124;24.752;2023-12-14T10:55:28;11.50;59.70
80232;DHT22;74189;42.124;24.752;2023-12-14T10:57:57;11.50;60.70
80232;DHT22;74189;42.124;24.752;2023-12-14T11:00:23;11.60;61.30
80232;DHT22;74189;42.124;24.752;2023-12-14T11:02:49;11.50;61.80
80232;DHT22;74189;42.124;24.752;2023-12-14T11:05:16;11.60;62.50
80232;DHT22;74189;42.124;24.752;2023-12-14T11:07:50;11.50;63.40
80232;DHT22;74189;42.124;24.752;2023-12-14T11:10:26;11.50;64.00
80232;DHT22;74189;42.124;24.752;2023-12-14T11:15:25;11.60;64.50
80232;DHT22;74189;42.124;24.752;2023-12-14T11:23:15;11.20;66.10
80232;DHT22;74189;42.124;24.752;2023-12-14T11:25:48;11.30;65.30
80232;DHT22;74189;42.124;24.752;2023-12-14T11:28:15;11.20;65.20
80232;DHT22;74189;42.124;24.752;2023-12-14T11:30:43;11.10;65.20
80232;DHT22;74189;42.124;24.752;2023-12-14T11:33:11;11.10;65.00
80232;DHT22;74189;42.124;24.752;2023-12-14T11:35:37;11.10;64.60
80232;DHT22;74189;42.124;24.752;2023-12-14T11:38:03;11.00;64.80
80232;DHT22;74189;42.124;24.752;2023-12-14T11:40:36;11.00;65.00
80232;DHT22;74189;42.124;24.752;2023-12-14T11:43:03;11.10;64.60
80232;DHT22;74189;42.124;24.752;2023-12-14T11:45:37;11.20;64.50
80232;DHT22;74189;42.124;24.752;2023-12-14T11:48:04;11.10;64.00
80232;DHT22;74189;42.124;24.752;2023-12-14T11:50:34;11.10;64.00
80232;DHT22;74189;42.124;24.752;2023-12-14T11:53:01;11.10;63.70
80232;DHT22;74189;42.124;24.752;2023-12-14T11:55:31;11.10;63.30
80232;DHT22;74189;42.124;24.752;2023-12-14T11:57:58;10.90;62.70
80232;DHT22;74189;42.124;24.752;2023-12-14T12:00:25;10.90;62.30
80232;DHT22;74189;42.124;24.752;2023-12-14T12:02:51;10.80;62.20
80232;DHT22;74189;42.124;24.752;2023-12-14T12:05:17;10.70;62.60
80232;DHT22;74189;42.124;24.752;2023-12-14T12:07:46;10.60;62.90
80232;DHT22;74189;42.124;24.752;2023-12-14T12:10:11;10.70;63.00
80232;DHT22;74189;42.124;24.752;2023-12-14T12:12:37;10.50;63.20
80232;DHT22;74189;42.124;24.752;2023-12-14T12:15:04;10.60;63.10
80232;DHT22;74189;42.124;24.752;2023-12-14T12:17:29;10.60;62.60
80232;DHT22;74189;42.124;24.752;2023-12-14T12:19:59;10.50;62.20
80232;DHT22;74189;42.124;24.752;2023-12-14T12:22:24;10.70;60.70
80232;DHT22;74189;42.124;24.752;2023-12-14T12:24:50;10.70;61.50
80232;DHT22;74189;42.124;24.752;2023-12-14T12:27:16;10.70;61.30
80232;DHT22;74189;42.124;24.752;2023-12-14T12:29:41;10.60;61.10
80232;DHT22;74189;42.124;24.752;2023-12-14T12:32:07;10.60;61.70
80232;DHT22;74189;42.124;24.752;2023-12-14T12:34:32;10.60;61.70
80232;DHT22;74189;42.124;24.752;2023-12-14T12:36:58;10.50;60.80
80232;DHT22;74189;42.124;24.752;2023-12-14T12:39:24;10.60;60.20
80232;DHT22;74189;42.124;24.752;2023-12-14T12:41:50;10.50;59.90
80232;DHT22;74189;42.124;24.752;2023-12-14T12:44:16;10.50;59.70
80232;DHT22;74189;42.124;24.752;2023-12-14T12:46:42;10.50;60.30
80232;DHT22;74189;42.124;24.752;2023-12-14T12:49:08;10.50;60.40
80232;DHT22;74189;42.124;24.752;2023-12-14T12:51:33;10.50;59.40
80232;DHT22;74189;42.124;24.752;2023-12-14T12:54:00;10.50;60.00
80232;DHT22;74189;42.124;24.752;2023-12-14T12:56:27;10.50;61.30
80232;DHT22;74189;42.124;24.752;2023-12-14T12:58:53;10.50;61.00
80232;DHT22;74189;42.124;24.752;2023-12-14T13:01:22;10.30;60.80
80232;DHT22;74189;42.124;24.752;2023-12-14T13:03:54;10.30;60.60
80232;DHT22;74189;42.124;24.752;2023-12-14T13:06:21;10.30;61.00
80232;DHT22;74189;42.124;24.752;2023-12-14T13:08:47;10.40;62.30
80232;DHT22;74189;42.124;24.752;2023-12-14T13:11:12;10.50;61.50
80232;DHT22;74189;42.124;24.752;2023-12-14T13:13:38;10.40;60.10
80232;DHT22;74189;42.124;24.752;2023-12-14T13:16:05;10.40;60.90
80232;DHT22;74189;42.124;24.752;2023-12-14T13:18:30;10.40;61.50
80232;DHT22;74189;42.124;24.752;2023-12-14T13:20:56;10.50;61.10
80232;DHT22;74189;42.124;24.752;2023-12-14T13:23:22;10.60;60.80
80232;DHT22;74189;42.124;24.752;2023-12-14T13:25:48;10.50;60.90
80232;DHT22;74189;42.124;24.752;2023-12-14T13:28:14;10.50;61.60
80232;DHT22;74189;42.124;24.752;2023-12-14T13:30:39;10.40;61.10
80232;DHT22;74189;42.124;24.752;2023-12-14T13:33:07;10.40;61.10
80232;DHT22;74189;42.124;24.752;2023-12-14T13:35:34;10.30;61.80
80232;DHT22;74189;42.124;24.752;2023-12-14T13:38:00;10.30;61.70
80232;DHT22;74189;42.124;24.752;2023-12-14T13:40:26;10.40;61.10
80232;DHT22;74189;42.124;24.752;2023-12-14T13:42:51;10.40;60.50
80232;DHT22;74189;42.124;24.752;2023-12-14T13:45:18;10.60;60.40
80232;DHT22;74189;42.124;24.752;2023-12-14T13:47:44;10.70;59.80
80232;DHT22;74189;42.124;24.752;2023-12-14T13:50:09;10.60;59.40
80232;DHT22;74189;42.124;24.752;2023-12-14T13:52:35;10.70;59.40
80232;DHT22;74189;42.124;24.752;2023-12-14T13:55:01;10.70;59.20
80232;DHT22;74189;42.124;24.752;2023-12-14T13:57:26;10.60;59.10
80232;DHT22;74189;42.124;24.752;2023-12-14T13:59:53;10.70;59.10
80232;DHT22;74189;42.124;24.752;2023-12-14T14:02:19;10.70;58.70
80232;DHT22;74189;42.124;24.752;2023-12-14T14:05:13;10.70;58.60
80232;DHT22;74189;42.124;24.752;2023-12-14T14:07:38;10.70;58.60
80232;DHT22;74189;42.124;24.752;2023-12-14T14:10:04;10.60;58.50
80232;DHT22;74189;42.124;24.752;2023-12-14T14:12:30;10.60;58.50
80232;DHT22;74189;42.124;24.752;2023-12-14T14:14:56;10.60;58.50
80232;DHT22;74189;42.124;24.752;2023-12-14T14:17:22;10.70;58.40
80232;DHT22;74189;42.124;24.752;2023-12-14T14:19:47;10.70;58.10
80232;DHT22;74189;42.124;24.752;2023-12-14T14:22:13;10.70;58.10
80232;DHT22;74189;42.124;24.752;2023-12-14T14:24:39;10.70;58.30
80232;DHT22;74189;42.124;24.752;2023-12-14T14:27:04;10.70;58.00
80232;DHT22;74189;42.124;24.752;2023-12-14T14:29:30;10.70;57.90
80232;DHT22;74189;42.124;24.752;2023-12-14T14:31:56;10.70;57.90
80232;DHT22;74189;42.124;24.752;2023-12-14T14:34:21;10.70;58.00
80232;DHT22;74189;42.124;24.752;2023-12-14T14:36:47;10.70;58.00
80232;DHT22;74189;42.124;24.752;2023-12-14T14:39:13;10.70;58.20
80232;DHT22;74189;42.124;24.752;2023-12-14T14:41:41;10.60;58.40
80232;DHT22;74189;42.124;24.752;2023-12-14T14:44:07;10.60;58.60
80232;DHT22;74189;42.124;24.752;2023-12-14T14:46:33;10.70;58.60
80232;DHT22;74189;42.124;24.752;2023-12-14T14:48:58;10.70;58.50
80232;DHT22;74189;42.124;24.752;2023-12-14T14:51:26;10.70;58.40
80232;DHT22;74189;42.124;24.752;2023-12-14T14:53:52;10.80;58.30
80232;DHT22;74189;42.124;24.752;2023-12-14T14:56:18;10.80;58.30
80232;DHT22;74189;42.124;24.752;2023-12-14T14:58:43;10.80;58.30
80232;DHT22;74189;42.124;24.752;2023-12-14T15:01:11;10.70;58.60
80232;DHT22;74189;42.124;24.752;2023-12-14T15:03:37;10.70;58.70
80232;DHT22;74189;42.124;24.752;2023-12-14T15:06:03;10.80;58.50
80232;DHT22;74189;42.124;24.752;2023-12-14T15:08:28;10.80;58.30
80232;DHT22;74189;42.124;24.752;2023-12-14T15:10:54;10.80;58.50
80232;DHT22;74189;42.124;24.752;2023-12-14T15:13:21;10.80;58.50
80232;DHT22;74189;42.124;24.752;2023-12-14T15:15:47;10.70;58.50
80232;DHT22;74189;42.124;24.752;2023-12-14T15:18:13;10.80;59.70
80232;DHT22;74189;42.124;24.752;2023-12-14T15:20:39;10.80;58.50
80232;DHT22;74189;42.124;24.752;2023-12-14T15:23:06;10.80;58.20
80232;DHT22;74189;42.124;24.752;2023-12-14T15:25:34;10.80;58.30